sensor_id;sensor_type;location;lat;lon;timestamp;P1;durP1;ratioP1;P2;durP2;ratioP2
76403;SDS011;65232;48.358;2.122;2023-03-17T00:00:03;5.80;;;3.28;;
76403;SDS011;65232;48.358;2.122;2023-03-17T00:00:37;3.97;;;3.40;;
76403;SDS011;65232;48.358;2.122;2023-03-17T00:01:05;5.97;;;3.88;;
76403;SDS011;65232;48.358;2.122;2023-03-17T00:01:57;5.13;;;3.70;;
76403;SDS011;65232;48.358;2.122;2023-03-17T00:02:22;4.85;;;3.20;;
76403;SDS011;65232;48.358;2.122;2023-03-17T00:02:48;6.15;;;3.45;;
76403;SDS011;65232;48.358;2.122;2023-03-17T00:03:44;7.60;;;4.30;;
76403;SDS011;65232;48.358;2.122;2023-03-17T00:04:11;5.65;;;3.85;;
76403;SDS011;65232;48.358;2.122;2023-03-17T00:04:37;6.93;;;4.22;;
76403;SDS011;65232;48.358;2.122;2023-03-17T00:05:13;6.43;;;4.28;;
76403;SDS011;65232;48.358;2.122;2023-03-17T00:05:42;7.40;;;4.70;;
76403;SDS011;65232;48.358;2.122;2023-03-17T00:06:13;7.03;;;4.57;;
76403;SDS011;65232;48.358;2.122;2023-03-17T00:06:40;12.75;;;6.45;;
76403;SDS011;65232;48.358;2.122;2023-03-17T00:07:06;8.98;;;6.00;;
76403;SDS011;65232;48.358;2.122;2023-03-17T00:07:34;8.43;;;5.93;;
76403;SDS011;65232;48.358;2.122;2023-03-17T00:08:33;7.75;;;5.40;;
76403;SDS011;65232;48.358;2.122;2023-03-17T00:08:52;7.00;;;4.55;;
76403;SDS011;65232;48.358;2.122;2023-03-17T00:09:18;7.13;;;3.47;;
76403;SDS011;65232;48.358;2.122;2023-03-17T00:09:44;6.53;;;4.25;;
76403;SDS011;65232;48.358;2.122;2023-03-17T00:10:14;6.40;;;4.28;;
76403;SDS011;65232;48.358;2.122;2023-03-17T00:10:50;6.47;;;4.03;;
76403;SDS011;65232;48.358;2.122;2023-03-17T00:11:16;10.15;;;4.00;;
76403;SDS011;65232;48.358;2.122;2023-03-17T00:11:42;7.78;;;4.55;;
76403;SDS011;65232;48.358;2.122;2023-03-17T00:12:10;7.90;;;4.57;;
76403;SDS011;65232;48.358;2.122;2023-03-17T00:12:36;7.10;;;4.57;;
76403;SDS011;65232;48.358;2.122;2023-03-17T00:13:02;7.90;;;5.15;;
76403;SDS011;65232;48.358;2.122;2023-03-17T00:13:28;7.78;;;5.15;;
76403;SDS011;65232;48.358;2.122;2023-03-17T00:13:54;7.78;;;5.05;;
76403;SDS011;65232;48.358;2.122;2023-03-17T00:14:20;10.57;;;6.93;;
76403;SDS011;65232;48.358;2.122;2023-03-17T00:14:46;14.25;;;8.95;;
76403;SDS011;65232;48.358;2.122;2023-03-17T00:15:12;16.15;;;9.13;;
76403;SDS011;65232;48.358;2.122;2023-03-17T00:15:39;15.88;;;8.68;;
76403;SDS011;65232;48.358;2.122;2023-03-17T00:16:05;15.40;;;9.07;;
76403;SDS011;65232;48.358;2.122;2023-03-17T00:16:37;17.35;;;9.07;;
76403;SDS011;65232;48.358;2.122;2023-03-17T00:17:08;19.63;;;10.70;;
76403;SDS011;65232;48.358;2.122;2023-03-17T00:17:36;13.70;;;6.75;;
76403;SDS011;65232;48.358;2.122;2023-03-17T00:18:02;13.63;;;5.75;;
76403;SDS011;65232;48.358;2.122;2023-03-17T00:18:27;11.45;;;6.70;;
76403;SDS011;65232;48.358;2.122;2023-03-17T00:18:55;6.93;;;4.68;;
76403;SDS011;65232;48.358;2.122;2023-03-17T00:19:24;9.23;;;5.68;;
76403;SDS011;65232;48.358;2.122;2023-03-17T00:19:55;11.73;;;5.95;;
76403;SDS011;65232;48.358;2.122;2023-03-17T00:20:52;8.10;;;5.72;;
76403;SDS011;65232;48.358;2.122;2023-03-17T00:21:23;15.77;;;8.07;;
76403;SDS011;65232;48.358;2.122;2023-03-17T00:21:52;11.98;;;7.45;;
76403;SDS011;65232;48.358;2.122;2023-03-17T00:22:17;13.73;;;7.65;;
76403;SDS011;65232;48.358;2.122;2023-03-17T00:22:43;15.43;;;8.63;;
76403;SDS011;65232;48.358;2.122;2023-03-17T00:23:48;11.95;;;6.38;;
76403;SDS011;65232;48.358;2.122;2023-03-17T00:24:15;8.70;;;4.68;;
76403;SDS011;65232;48.358;2.122;2023-03-17T00:24:41;7.00;;;4.05;;
76403;SDS011;65232;48.358;2.122;2023-03-17T00:25:17;6.38;;;4.25;;
76403;SDS011;65232;48.358;2.122;2023-03-17T00:25:46;6.25;;;4.30;;
76403;SDS011;65232;48.358;2.122;2023-03-17T00:26:12;6.75;;;4.75;;
76403;SDS011;65232;48.358;2.122;2023-03-17T00:26:38;7.35;;;4.57;;
76403;SDS011;65232;48.358;2.122;2023-03-17T00:27:35;6.25;;;4.00;;
76403;SDS011;65232;48.358;2.122;2023-03-17T00:28:00;5.78;;;4.20;;
76403;SDS011;65232;48.358;2.122;2023-03-17T00:28:28;7.38;;;4.45;;
76403;SDS011;65232;48.358;2.122;2023-03-17T00:28:54;8.70;;;4.50;;
76403;SDS011;65232;48.358;2.122;2023-03-17T00:29:20;7.07;;;4.45;;
76403;SDS011;65232;48.358;2.122;2023-03-17T00:29:45;6.57;;;4.15;;
76403;SDS011;65232;48.358;2.122;2023-03-17T00:30:11;6.43;;;3.92;;
76403;SDS011;65232;48.358;2.122;2023-03-17T00:30:36;7.95;;;4.43;;
76403;SDS011;65232;48.358;2.122;2023-03-17T00:31:05;8.93;;;4.82;;
76403;SDS011;65232;48.358;2.122;2023-03-17T00:31:38;8.20;;;4.38;;
76403;SDS011;65232;48.358;2.122;2023-03-17T00:32:03;8.25;;;4.22;;
76403;SDS011;65232;48.358;2.122;2023-03-17T00:32:29;5.22;;;4.03;;
76403;SDS011;65232;48.358;2.122;2023-03-17T00:32:55;6.13;;;4.50;;
76403;SDS011;65232;48.358;2.122;2023-03-17T00:33:23;6.20;;;4.20;;
76403;SDS011;65232;48.358;2.122;2023-03-17T00:33:50;10.30;;;5.25;;
76403;SDS011;65232;48.358;2.122;2023-03-17T00:34:19;7.35;;;4.55;;
76403;SDS011;65232;48.358;2.122;2023-03-17T00:34:45;8.70;;;5.25;;
76403;SDS011;65232;48.358;2.122;2023-03-17T00:35:15;9.25;;;5.32;;
76403;SDS011;65232;48.358;2.122;2023-03-17T00:35:46;9.40;;;4.57;;
76403;SDS011;65232;48.358;2.122;2023-03-17T00:36:14;9.30;;;5.32;;
76403;SDS011;65232;48.358;2.122;2023-03-17T00:36:44;8.90;;;5.28;;
76403;SDS011;65232;48.358;2.122;2023-03-17T00:37:11;8.85;;;4.68;;
76403;SDS011;65232;48.358;2.122;2023-03-17T00:37:37;7.45;;;4.57;;
76403;SDS011;65232;48.358;2.122;2023-03-17T00:38:29;7.32;;;3.85;;
76403;SDS011;65232;48.358;2.122;2023-03-17T00:38:56;5.88;;;3.83;;
76403;SDS011;65232;48.358;2.122;2023-03-17T00:39:23;6.70;;;4.38;;
76403;SDS011;65232;48.358;2.122;2023-03-17T00:39:52;7.75;;;4.43;;
76403;SDS011;65232;48.358;2.122;2023-03-17T00:40:28;6.90;;;4.47;;
76403;SDS011;65232;48.358;2.122;2023-03-17T00:40:54;9.80;;;5.05;;
76403;SDS011;65232;48.358;2.122;2023-03-17T00:41:20;8.10;;;5.32;;
76403;SDS011;65232;48.358;2.122;2023-03-17T00:41:46;7.47;;;4.88;;
76403;SDS011;65232;48.358;2.122;2023-03-17T00:42:12;7.55;;;4.63;;
76403;SDS011;65232;48.358;2.122;2023-03-17T00:42:37;11.48;;;5.00;;
76403;SDS011;65232;48.358;2.122;2023-03-17T00:43:03;10.15;;;5.15;;
76403;SDS011;65232;48.358;2.122;2023-03-17T00:43:28;10.13;;;5.95;;
76403;SDS011;65232;48.358;2.122;2023-03-17T00:43:55;8.75;;;5.50;;
76403;SDS011;65232;48.358;2.122;2023-03-17T00:44:21;10.02;;;5.70;;
76403;SDS011;65232;48.358;2.122;2023-03-17T00:44:46;10.43;;;6.35;;
76403;SDS011;65232;48.358;2.122;2023-03-17T00:45:12;11.10;;;6.22;;
76403;SDS011;65232;48.358;2.122;2023-03-17T00:45:38;9.48;;;5.85;;
76403;SDS011;65232;48.358;2.122;2023-03-17T00:46:14;8.75;;;5.20;;
76403;SDS011;65232;48.358;2.122;2023-03-17T00:46:42;10.38;;;5.75;;
76403;SDS011;65232;48.358;2.122;2023-03-17T00:47:09;13.52;;;6.82;;
76403;SDS011;65232;48.358;2.122;2023-03-17T00:47:35;13.75;;;7.40;;
76403;SDS011;65232;48.358;2.122;2023-03-17T00:48:04;13.35;;;7.85;;
76403;SDS011;65232;48.358;2.122;2023-03-17T00:48:42;17.48;;;9.38;;
76403;SDS011;65232;48.358;2.122;2023-03-17T00:49:17;22.02;;;10.30;;
76403;SDS011;65232;48.358;2.122;2023-03-17T00:49:45;14.75;;;8.23;;
76403;SDS011;65232;48.358;2.122;2023-03-17T00:50:13;11.70;;;6.90;;
76403;SDS011;65232;48.358;2.122;2023-03-17T00:50:46;10.63;;;5.55;;
76403;SDS011;65232;48.358;2.122;2023-03-17T00:51:13;7.68;;;4.40;;
76403;SDS011;65232;48.358;2.122;2023-03-17T00:51:45;9.20;;;4.55;;
76403;SDS011;65232;48.358;2.122;2023-03-17T00:52:12;9.52;;;5.30;;
76403;SDS011;65232;48.358;2.122;2023-03-17T00:52:40;10.63;;;6.15;;
76403;SDS011;65232;48.358;2.122;2023-03-17T00:53:14;12.23;;;6.38;;
76403;SDS011;65232;48.358;2.122;2023-03-17T00:53:41;9.65;;;5.88;;
76403;SDS011;65232;48.358;2.122;2023-03-17T00:54:08;10.77;;;5.78;;
76403;SDS011;65232;48.358;2.122;2023-03-17T00:54:34;13.18;;;6.88;;
76403;SDS011;65232;48.358;2.122;2023-03-17T00:55:00;12.23;;;6.53;;
76403;SDS011;65232;48.358;2.122;2023-03-17T00:55:26;9.13;;;5.85;;
76403;SDS011;65232;48.358;2.122;2023-03-17T00:55:52;12.30;;;4.90;;
76403;SDS011;65232;48.358;2.122;2023-03-17T00:56:18;8.48;;;5.82;;
76403;SDS011;65232;48.358;2.122;2023-03-17T00:56:45;9.77;;;6.20;;
76403;SDS011;65232;48.358;2.122;2023-03-17T00:57:12;10.95;;;6.38;;
76403;SDS011;65232;48.358;2.122;2023-03-17T00:57:37;9.93;;;6.22;;
76403;SDS011;65232;48.358;2.122;2023-03-17T00:58:23;12.23;;;6.88;;
76403;SDS011;65232;48.358;2.122;2023-03-17T00:58:52;10.07;;;6.32;;
76403;SDS011;65232;48.358;2.122;2023-03-17T00:59:54;14.25;;;6.88;;
76403;SDS011;65232;48.358;2.122;2023-03-17T01:00:24;16.50;;;7.43;;
76403;SDS011;65232;48.358;2.122;2023-03-17T01:00:51;12.20;;;7.65;;
76403;SDS011;65232;48.358;2.122;2023-03-17T01:01:17;15.95;;;8.07;;
76403;SDS011;65232;48.358;2.122;2023-03-17T01:01:45;15.65;;;8.50;;
76403;SDS011;65232;48.358;2.122;2023-03-17T01:02:12;15.55;;;8.23;;
76403;SDS011;65232;48.358;2.122;2023-03-17T01:02:37;15.48;;;8.70;;
76403;SDS011;65232;48.358;2.122;2023-03-17T01:03:03;18.70;;;8.48;;
76403;SDS011;65232;48.358;2.122;2023-03-17T01:03:28;13.50;;;8.23;;
76403;SDS011;65232;48.358;2.122;2023-03-17T01:03:55;14.82;;;7.78;;
76403;SDS011;65232;48.358;2.122;2023-03-17T01:04:21;14.13;;;7.35;;
76403;SDS011;65232;48.358;2.122;2023-03-17T01:04:46;12.30;;;6.72;;
76403;SDS011;65232;48.358;2.122;2023-03-17T01:05:12;13.75;;;6.78;;
76403;SDS011;65232;48.358;2.122;2023-03-17T01:05:40;10.13;;;6.28;;
76403;SDS011;65232;48.358;2.122;2023-03-17T01:06:08;9.32;;;5.55;;
76403;SDS011;65232;48.358;2.122;2023-03-17T01:06:36;9.80;;;5.97;;
76403;SDS011;65232;48.358;2.122;2023-03-17T01:07:27;10.65;;;5.43;;
76403;SDS011;65232;48.358;2.122;2023-03-17T01:07:54;8.57;;;5.63;;
76403;SDS011;65232;48.358;2.122;2023-03-17T01:08:21;11.20;;;5.28;;
76403;SDS011;65232;48.358;2.122;2023-03-17T01:08:47;8.73;;;5.50;;
76403;SDS011;65232;48.358;2.122;2023-03-17T01:09:14;9.95;;;5.50;;
76403;SDS011;65232;48.358;2.122;2023-03-17T01:09:41;8.93;;;5.18;;
76403;SDS011;65232;48.358;2.122;2023-03-17T01:10:10;11.60;;;5.53;;
76403;SDS011;65232;48.358;2.122;2023-03-17T01:10:41;8.10;;;4.53;;
76403;SDS011;65232;48.358;2.122;2023-03-17T01:11:16;11.85;;;5.53;;
76403;SDS011;65232;48.358;2.122;2023-03-17T01:11:45;8.30;;;5.00;;
76403;SDS011;65232;48.358;2.122;2023-03-17T01:12:13;15.70;;;5.70;;
76403;SDS011;65232;48.358;2.122;2023-03-17T01:12:38;10.07;;;5.10;;
76403;SDS011;65232;48.358;2.122;2023-03-17T01:13:04;12.02;;;6.78;;
76403;SDS011;65232;48.358;2.122;2023-03-17T01:13:31;15.43;;;8.07;;
76403;SDS011;65232;48.358;2.122;2023-03-17T01:13:57;15.27;;;7.25;;
76403;SDS011;65232;48.358;2.122;2023-03-17T01:14:23;13.02;;;6.97;;
76403;SDS011;65232;48.358;2.122;2023-03-17T01:14:48;13.85;;;6.35;;
76403;SDS011;65232;48.358;2.122;2023-03-17T01:15:14;13.15;;;7.63;;
76403;SDS011;65232;48.358;2.122;2023-03-17T01:15:44;13.52;;;7.47;;
76403;SDS011;65232;48.358;2.122;2023-03-17T01:16:11;14.25;;;7.28;;
76403;SDS011;65232;48.358;2.122;2023-03-17T01:16:37;13.00;;;7.57;;
76403;SDS011;65232;48.358;2.122;2023-03-17T01:17:04;14.52;;;7.70;;
76403;SDS011;65232;48.358;2.122;2023-03-17T01:17:41;13.40;;;6.60;;
76403;SDS011;65232;48.358;2.122;2023-03-17T01:18:08;13.90;;;7.50;;
76403;SDS011;65232;48.358;2.122;2023-03-17T01:18:36;20.75;;;9.68;;
76403;SDS011;65232;48.358;2.122;2023-03-17T01:19:02;28.48;;;13.10;;
76403;SDS011;65232;48.358;2.122;2023-03-17T01:19:28;28.67;;;13.32;;
76403;SDS011;65232;48.358;2.122;2023-03-17T01:19:54;20.35;;;9.23;;
76403;SDS011;65232;48.358;2.122;2023-03-17T01:20:21;13.13;;;6.82;;
76403;SDS011;65232;48.358;2.122;2023-03-17T01:20:49;10.30;;;5.15;;
76403;SDS011;65232;48.358;2.122;2023-03-17T01:21:17;11.60;;;6.20;;
76403;SDS011;65232;48.358;2.122;2023-03-17T01:21:42;10.00;;;5.93;;
76403;SDS011;65232;48.358;2.122;2023-03-17T01:22:09;9.07;;;5.43;;
76403;SDS011;65232;48.358;2.122;2023-03-17T01:22:35;11.07;;;5.28;;
76403;SDS011;65232;48.358;2.122;2023-03-17T01:23:00;8.43;;;4.95;;
76403;SDS011;65232;48.358;2.122;2023-03-17T01:23:26;7.80;;;4.90;;
76403;SDS011;65232;48.358;2.122;2023-03-17T01:23:51;9.85;;;5.43;;
76403;SDS011;65232;48.358;2.122;2023-03-17T01:24:17;9.82;;;5.47;;
76403;SDS011;65232;48.358;2.122;2023-03-17T01:24:44;9.15;;;5.20;;
76403;SDS011;65232;48.358;2.122;2023-03-17T01:25:11;8.48;;;5.75;;
76403;SDS011;65232;48.358;2.122;2023-03-17T01:25:38;9.43;;;5.50;;
76403;SDS011;65232;48.358;2.122;2023-03-17T01:26:05;7.57;;;5.50;;
76403;SDS011;65232;48.358;2.122;2023-03-17T01:26:30;9.52;;;5.88;;
76403;SDS011;65232;48.358;2.122;2023-03-17T01:26:57;11.00;;;5.68;;
76403;SDS011;65232;48.358;2.122;2023-03-17T01:27:23;8.77;;;6.03;;
76403;SDS011;65232;48.358;2.122;2023-03-17T01:27:49;9.27;;;6.43;;
76403;SDS011;65232;48.358;2.122;2023-03-17T01:28:16;11.35;;;6.55;;
76403;SDS011;65232;48.358;2.122;2023-03-17T01:28:44;14.30;;;6.63;;
76403;SDS011;65232;48.358;2.122;2023-03-17T01:29:09;15.05;;;7.88;;
76403;SDS011;65232;48.358;2.122;2023-03-17T01:29:35;14.23;;;8.20;;
76403;SDS011;65232;48.358;2.122;2023-03-17T01:30:01;12.18;;;6.95;;
76403;SDS011;65232;48.358;2.122;2023-03-17T01:30:29;11.65;;;7.75;;
76403;SDS011;65232;48.358;2.122;2023-03-17T01:30:55;11.30;;;7.55;;
76403;SDS011;65232;48.358;2.122;2023-03-17T01:31:20;11.40;;;6.97;;
76403;SDS011;65232;48.358;2.122;2023-03-17T01:31:47;9.85;;;6.32;;
76403;SDS011;65232;48.358;2.122;2023-03-17T01:32:13;9.23;;;6.50;;
76403;SDS011;65232;48.358;2.122;2023-03-17T01:32:38;9.38;;;5.95;;
76403;SDS011;65232;48.358;2.122;2023-03-17T01:33:04;11.40;;;6.43;;
76403;SDS011;65232;48.358;2.122;2023-03-17T01:33:32;10.82;;;6.63;;
76403;SDS011;65232;48.358;2.122;2023-03-17T01:33:58;11.10;;;6.07;;
76403;SDS011;65232;48.358;2.122;2023-03-17T01:34:24;11.05;;;6.60;;
76403;SDS011;65232;48.358;2.122;2023-03-17T01:34:49;11.90;;;7.05;;
76403;SDS011;65232;48.358;2.122;2023-03-17T01:35:15;12.70;;;7.47;;
76403;SDS011;65232;48.358;2.122;2023-03-17T01:35:42;14.73;;;8.80;;
76403;SDS011;65232;48.358;2.122;2023-03-17T01:36:08;18.10;;;9.52;;
76403;SDS011;65232;48.358;2.122;2023-03-17T01:36:35;15.15;;;8.98;;
76403;SDS011;65232;48.358;2.122;2023-03-17T01:37:01;17.23;;;9.55;;
76403;SDS011;65232;48.358;2.122;2023-03-17T01:37:27;14.93;;;8.70;;
76403;SDS011;65232;48.358;2.122;2023-03-17T01:37:52;13.63;;;8.07;;
76403;SDS011;65232;48.358;2.122;2023-03-17T01:38:18;15.80;;;9.38;;
76403;SDS011;65232;48.358;2.122;2023-03-17T01:38:43;15.95;;;8.77;;
76403;SDS011;65232;48.358;2.122;2023-03-17T01:39:12;14.38;;;7.88;;
76403;SDS011;65232;48.358;2.122;2023-03-17T01:39:37;11.70;;;7.70;;
76403;SDS011;65232;48.358;2.122;2023-03-17T01:40:35;16.15;;;7.78;;
76403;SDS011;65232;48.358;2.122;2023-03-17T01:41:06;19.23;;;8.90;;
76403;SDS011;65232;48.358;2.122;2023-03-17T01:41:35;23.42;;;10.48;;
76403;SDS011;65232;48.358;2.122;2023-03-17T01:42:01;18.42;;;9.57;;
76403;SDS011;65232;48.358;2.122;2023-03-17T01:42:28;15.52;;;8.55;;
76403;SDS011;65232;48.358;2.122;2023-03-17T01:42:57;17.05;;;8.45;;
76403;SDS011;65232;48.358;2.122;2023-03-17T01:43:27;14.25;;;8.73;;
76403;SDS011;65232;48.358;2.122;2023-03-17T01:43:54;12.73;;;8.00;;
76403;SDS011;65232;48.358;2.122;2023-03-17T01:44:20;14.50;;;8.10;;
76403;SDS011;65232;48.358;2.122;2023-03-17T01:46:40;14.15;;;7.47;;
76403;SDS011;65232;48.358;2.122;2023-03-17T01:47:06;16.00;;;8.32;;
76403;SDS011;65232;48.358;2.122;2023-03-17T01:47:31;14.07;;;8.07;;
76403;SDS011;65232;48.358;2.122;2023-03-17T01:47:58;14.05;;;8.73;;
76403;SDS011;65232;48.358;2.122;2023-03-17T01:48:23;14.38;;;8.07;;
76403;SDS011;65232;48.358;2.122;2023-03-17T01:49:44;13.77;;;6.70;;
76403;SDS011;65232;48.358;2.122;2023-03-17T01:50:09;15.45;;;8.55;;
76403;SDS011;65232;48.358;2.122;2023-03-17T01:50:35;15.27;;;8.38;;
76403;SDS011;65232;48.358;2.122;2023-03-17T01:51:00;18.00;;;8.00;;
76403;SDS011;65232;48.358;2.122;2023-03-17T01:51:35;36.65;;;13.90;;
76403;SDS011;65232;48.358;2.122;2023-03-17T01:52:18;23.58;;;11.20;;
76403;SDS011;65232;48.358;2.122;2023-03-17T01:52:45;21.38;;;9.73;;
76403;SDS011;65232;48.358;2.122;2023-03-17T01:53:12;26.25;;;11.32;;
76403;SDS011;65232;48.358;2.122;2023-03-17T01:53:37;26.17;;;11.82;;
76403;SDS011;65232;48.358;2.122;2023-03-17T01:54:05;36.15;;;15.95;;
76403;SDS011;65232;48.358;2.122;2023-03-17T01:54:36;37.88;;;13.68;;
76403;SDS011;65232;48.358;2.122;2023-03-17T01:55:10;21.05;;;10.32;;
76403;SDS011;65232;48.358;2.122;2023-03-17T01:55:40;22.33;;;9.95;;
76403;SDS011;65232;48.358;2.122;2023-03-17T01:56:09;15.70;;;8.95;;
76403;SDS011;65232;48.358;2.122;2023-03-17T01:56:36;16.05;;;9.15;;
76403;SDS011;65232;48.358;2.122;2023-03-17T01:57:11;16.27;;;9.38;;
76403;SDS011;65232;48.358;2.122;2023-03-17T01:57:42;19.10;;;8.93;;
76403;SDS011;65232;48.358;2.122;2023-03-17T01:58:10;16.00;;;9.40;;
76403;SDS011;65232;48.358;2.122;2023-03-17T01:58:37;16.50;;;9.57;;
76403;SDS011;65232;48.358;2.122;2023-03-17T01:59:04;14.40;;;8.75;;
76403;SDS011;65232;48.358;2.122;2023-03-17T01:59:33;14.70;;;9.10;;
76403;SDS011;65232;48.358;2.122;2023-03-17T02:00:39;13.02;;;7.75;;
76403;SDS011;65232;48.358;2.122;2023-03-17T02:01:05;13.95;;;8.38;;
76403;SDS011;65232;48.358;2.122;2023-03-17T02:01:36;15.07;;;7.88;;
76403;SDS011;65232;48.358;2.122;2023-03-17T02:02:07;15.73;;;8.32;;
76403;SDS011;65232;48.358;2.122;2023-03-17T02:02:36;12.27;;;7.35;;
76403;SDS011;65232;48.358;2.122;2023-03-17T02:03:04;12.35;;;7.22;;
76403;SDS011;65232;48.358;2.122;2023-03-17T02:03:30;11.57;;;7.00;;
76403;SDS011;65232;48.358;2.122;2023-03-17T02:03:55;11.00;;;5.70;;
76403;SDS011;65232;48.358;2.122;2023-03-17T02:04:22;11.10;;;6.05;;
76403;SDS011;65232;48.358;2.122;2023-03-17T02:04:50;8.55;;;5.53;;
76403;SDS011;65232;48.358;2.122;2023-03-17T02:05:20;8.68;;;5.05;;
76403;SDS011;65232;48.358;2.122;2023-03-17T02:05:49;7.72;;;4.85;;
76403;SDS011;65232;48.358;2.122;2023-03-17T02:06:16;8.82;;;5.35;;
76403;SDS011;65232;48.358;2.122;2023-03-17T02:06:43;9.93;;;5.72;;
76403;SDS011;65232;48.358;2.122;2023-03-17T02:07:10;8.45;;;5.63;;
76403;SDS011;65232;48.358;2.122;2023-03-17T02:07:39;10.63;;;5.50;;
76403;SDS011;65232;48.358;2.122;2023-03-17T02:08:12;9.15;;;5.70;;
76403;SDS011;65232;48.358;2.122;2023-03-17T02:08:39;8.48;;;6.05;;
76403;SDS011;65232;48.358;2.122;2023-03-17T02:09:04;12.10;;;6.55;;
76403;SDS011;65232;48.358;2.122;2023-03-17T02:09:32;9.77;;;5.90;;
76403;SDS011;65232;48.358;2.122;2023-03-17T02:09:58;9.43;;;5.75;;
76403;SDS011;65232;48.358;2.122;2023-03-17T02:10:25;8.45;;;5.72;;
76403;SDS011;65232;48.358;2.122;2023-03-17T02:10:52;13.30;;;7.10;;
76403;SDS011;65232;48.358;2.122;2023-03-17T02:11:21;9.55;;;6.15;;
76403;SDS011;65232;48.358;2.122;2023-03-17T02:11:47;10.85;;;6.68;;
76403;SDS011;65232;48.358;2.122;2023-03-17T02:12:15;11.77;;;6.32;;
76403;SDS011;65232;48.358;2.122;2023-03-17T02:12:41;11.35;;;7.95;;
76403;SDS011;65232;48.358;2.122;2023-03-17T02:13:09;12.70;;;8.85;;
76403;SDS011;65232;48.358;2.122;2023-03-17T02:13:37;13.88;;;8.63;;
76403;SDS011;65232;48.358;2.122;2023-03-17T02:14:05;14.45;;;11.20;;
76403;SDS011;65232;48.358;2.122;2023-03-17T02:14:31;13.00;;;9.18;;
76403;SDS011;65232;48.358;2.122;2023-03-17T02:14:57;12.40;;;8.05;;
76403;SDS011;65232;48.358;2.122;2023-03-17T02:15:22;12.75;;;7.90;;
76403;SDS011;65232;48.358;2.122;2023-03-17T02:15:59;10.18;;;7.25;;
76403;SDS011;65232;48.358;2.122;2023-03-17T02:16:25;14.77;;;7.43;;
76403;SDS011;65232;48.358;2.122;2023-03-17T02:16:50;11.52;;;7.80;;
76403;SDS011;65232;48.358;2.122;2023-03-17T02:17:17;13.00;;;8.15;;
76403;SDS011;65232;48.358;2.122;2023-03-17T02:17:43;14.15;;;7.88;;
76403;SDS011;65232;48.358;2.122;2023-03-17T02:18:09;11.35;;;7.30;;
76403;SDS011;65232;48.358;2.122;2023-03-17T02:18:36;14.52;;;7.82;;
76403;SDS011;65232;48.358;2.122;2023-03-17T02:19:02;16.20;;;8.45;;
76403;SDS011;65232;48.358;2.122;2023-03-17T02:19:27;12.88;;;8.13;;
76403;SDS011;65232;48.358;2.122;2023-03-17T02:19:55;13.98;;;8.40;;
76403;SDS011;65232;48.358;2.122;2023-03-17T02:22:02;11.07;;;7.38;;
76403;SDS011;65232;48.358;2.122;2023-03-17T02:22:28;14.77;;;8.02;;
76403;SDS011;65232;48.358;2.122;2023-03-17T02:22:53;12.52;;;7.72;;
76403;SDS011;65232;48.358;2.122;2023-03-17T02:23:21;10.77;;;7.22;;
76403;SDS011;65232;48.358;2.122;2023-03-17T02:25:07;10.65;;;5.72;;
76403;SDS011;65232;48.358;2.122;2023-03-17T02:25:33;11.98;;;6.53;;
76403;SDS011;65232;48.358;2.122;2023-03-17T02:26:01;9.05;;;5.30;;
76403;SDS011;65232;48.358;2.122;2023-03-17T02:26:28;8.10;;;5.20;;
76403;SDS011;65232;48.358;2.122;2023-03-17T02:26:58;6.93;;;4.95;;
76403;SDS011;65232;48.358;2.122;2023-03-17T02:27:29;9.80;;;5.85;;
76403;SDS011;65232;48.358;2.122;2023-03-17T02:28:10;8.88;;;5.30;;
76403;SDS011;65232;48.358;2.122;2023-03-17T02:28:39;9.77;;;5.53;;
76403;SDS011;65232;48.358;2.122;2023-03-17T02:29:05;8.80;;;5.90;;
76403;SDS011;65232;48.358;2.122;2023-03-17T02:29:31;10.70;;;5.10;;
76403;SDS011;65232;48.358;2.122;2023-03-17T02:29:59;10.75;;;6.18;;
76403;SDS011;65232;48.358;2.122;2023-03-17T02:30:25;9.25;;;5.70;;
76403;SDS011;65232;48.358;2.122;2023-03-17T02:30:50;12.18;;;6.63;;
76403;SDS011;65232;48.358;2.122;2023-03-17T02:31:16;10.85;;;6.43;;
76403;SDS011;65232;48.358;2.122;2023-03-17T02:31:42;10.45;;;6.13;;
76403;SDS011;65232;48.358;2.122;2023-03-17T02:32:08;11.75;;;6.88;;
76403;SDS011;65232;48.358;2.122;2023-03-17T02:32:35;10.50;;;6.75;;
76403;SDS011;65232;48.358;2.122;2023-03-17T02:33:01;12.63;;;6.55;;
76403;SDS011;65232;48.358;2.122;2023-03-17T02:33:27;11.60;;;6.93;;
76403;SDS011;65232;48.358;2.122;2023-03-17T02:33:53;14.40;;;7.10;;
76403;SDS011;65232;48.358;2.122;2023-03-17T02:34:19;13.93;;;7.35;;
76403;SDS011;65232;48.358;2.122;2023-03-17T02:34:46;10.63;;;6.40;;
76403;SDS011;65232;48.358;2.122;2023-03-17T02:35:12;11.07;;;7.30;;
76403;SDS011;65232;48.358;2.122;2023-03-17T02:35:40;12.85;;;6.82;;
76403;SDS011;65232;48.358;2.122;2023-03-17T02:36:07;10.75;;;7.00;;
76403;SDS011;65232;48.358;2.122;2023-03-17T02:36:33;14.18;;;8.10;;
76403;SDS011;65232;48.358;2.122;2023-03-17T02:36:59;11.30;;;7.20;;
76403;SDS011;65232;48.358;2.122;2023-03-17T02:37:24;14.30;;;8.00;;
76403;SDS011;65232;48.358;2.122;2023-03-17T02:37:50;14.23;;;8.00;;
76403;SDS011;65232;48.358;2.122;2023-03-17T02:38:16;12.07;;;7.47;;
76403;SDS011;65232;48.358;2.122;2023-03-17T02:38:41;11.77;;;7.40;;
76403;SDS011;65232;48.358;2.122;2023-03-17T02:39:07;12.68;;;7.43;;
76403;SDS011;65232;48.358;2.122;2023-03-17T02:39:32;11.73;;;7.65;;
76403;SDS011;65232;48.358;2.122;2023-03-17T02:39:58;17.23;;;7.85;;
76403;SDS011;65232;48.358;2.122;2023-03-17T02:40:25;10.80;;;7.10;;
76403;SDS011;65232;48.358;2.122;2023-03-17T02:40:51;12.35;;;7.55;;
76403;SDS011;65232;48.358;2.122;2023-03-17T02:41:17;10.18;;;6.95;;
76403;SDS011;65232;48.358;2.122;2023-03-17T02:41:42;11.48;;;6.75;;
76403;SDS011;65232;48.358;2.122;2023-03-17T02:42:08;10.20;;;6.60;;
76403;SDS011;65232;48.358;2.122;2023-03-17T02:42:34;12.57;;;6.38;;
76403;SDS011;65232;48.358;2.122;2023-03-17T02:42:59;11.30;;;6.55;;
76403;SDS011;65232;48.358;2.122;2023-03-17T02:43:26;9.20;;;6.43;;
76403;SDS011;65232;48.358;2.122;2023-03-17T02:43:54;9.93;;;6.68;;
76403;SDS011;65232;48.358;2.122;2023-03-17T02:44:46;9.38;;;5.90;;
76403;SDS011;65232;48.358;2.122;2023-03-17T02:45:12;8.18;;;5.43;;
76403;SDS011;65232;48.358;2.122;2023-03-17T02:45:38;8.80;;;5.18;;
76403;SDS011;65232;48.358;2.122;2023-03-17T02:46:03;8.63;;;5.85;;
76403;SDS011;65232;48.358;2.122;2023-03-17T02:46:29;8.77;;;5.72;;
76403;SDS011;65232;48.358;2.122;2023-03-17T02:46:57;10.18;;;5.60;;
76403;SDS011;65232;48.358;2.122;2023-03-17T02:47:23;9.57;;;6.03;;
76403;SDS011;65232;48.358;2.122;2023-03-17T02:47:49;8.95;;;5.70;;
76403;SDS011;65232;48.358;2.122;2023-03-17T02:48:15;11.75;;;7.22;;
76403;SDS011;65232;48.358;2.122;2023-03-17T02:49:07;9.88;;;6.10;;
76403;SDS011;65232;48.358;2.122;2023-03-17T02:49:33;11.48;;;5.90;;
76403;SDS011;65232;48.358;2.122;2023-03-17T02:50:00;10.02;;;6.05;;
76403;SDS011;65232;48.358;2.122;2023-03-17T02:50:25;10.73;;;6.70;;
76403;SDS011;65232;48.358;2.122;2023-03-17T02:50:52;9.38;;;6.28;;
76403;SDS011;65232;48.358;2.122;2023-03-17T02:51:18;10.38;;;6.22;;
76403;SDS011;65232;48.358;2.122;2023-03-17T02:51:43;11.93;;;7.15;;
76403;SDS011;65232;48.358;2.122;2023-03-17T02:52:09;11.80;;;6.10;;
76403;SDS011;65232;48.358;2.122;2023-03-17T02:52:36;9.48;;;6.13;;
76403;SDS011;65232;48.358;2.122;2023-03-17T02:53:01;9.48;;;5.65;;
76403;SDS011;65232;48.358;2.122;2023-03-17T02:53:26;9.65;;;6.20;;
76403;SDS011;65232;48.358;2.122;2023-03-17T02:53:52;12.05;;;6.57;;
76403;SDS011;65232;48.358;2.122;2023-03-17T02:54:17;10.10;;;6.43;;
76403;SDS011;65232;48.358;2.122;2023-03-17T02:54:43;13.13;;;6.85;;
76403;SDS011;65232;48.358;2.122;2023-03-17T02:55:08;12.48;;;7.00;;